sensor_id;sensor_type;location;lat;lon;timestamp;pressure;altitude;pressure_sealevel;temperature;humidity
42603;BME280;28233;55.748;48.752;2022-08-11T00:00:56;99754.06;;;19.20;93.94
42603;BME280;28233;55.748;48.752;2022-08-11T00:03:04;99732.91;;;19.16;93.70
42603;BME280;28233;55.748;48.752;2022-08-11T00:05:13;99752.91;;;19.21;93.36
42603;BME280;28233;55.748;48.752;2022-08-11T00:07:17;99746.50;;;19.21;93.45
42603;BME280;28233;55.748;48.752;2022-08-11T00:09:22;99754.50;;;19.22;93.43
42603;BME280;28233;55.748;48.752;2022-08-11T00:11:45;99754.13;;;19.24;93.22
42603;BME280;28233;55.748;48.752;2022-08-11T00:13:49;99749.78;;;19.27;92.99
42603;BME280;28233;55.748;48.752;2022-08-11T00:15:51;99753.00;;;19.29;92.81
42603;BME280;28233;55.748;48.752;2022-08-11T00:18:01;99748.66;;;19.31;92.56
42603;BME280;28233;55.748;48.752;2022-08-11T00:20:12;99754.22;;;19.31;92.63
42603;BME280;28233;55.748;48.752;2022-08-11T00:22:22;99751.06;;;19.33;92.51
42603;BME280;28233;55.748;48.752;2022-08-11T00:24:32;99743.53;;;19.33;92.58
42603;BME280;28233;55.748;48.752;2022-08-11T00:26:54;99756.25;;;19.34;92.16
42603;BME280;28233;55.748;48.752;2022-08-11T00:29:07;99757.06;;;19.35;92.32
42603;BME280;28233;55.748;48.752;2022-08-11T00:31:23;99757.84;;;19.35;92.22
42603;BME280;28233;55.748;48.752;2022-08-11T00:33:40;99764.63;;;19.34;92.57
42603;BME280;28233;55.748;48.752;2022-08-11T00:35:48;99756.63;;;19.33;92.31
42603;BME280;28233;55.748;48.752;2022-08-11T00:37:59;99759.03;;;19.34;92.20
42603;BME280;28233;55.748;48.752;2022-08-11T00:40:06;99761.47;;;19.36;92.13
42603;BME280;28233;55.748;48.752;2022-08-11T01:11:17;99783.25;;;19.30;91.73
42603;BME280;28233;55.748;48.752;2022-08-11T01:19:15;99772.94;;;19.31;91.79
42603;BME280;28233;55.748;48.752;2022-08-11T01:42:00;99785.72;;;19.35;90.89
42603;BME280;28233;55.748;48.752;2022-08-11T01:50:07;99799.28;;;19.37;90.88
42603;BME280;28233;55.748;48.752;2022-08-11T01:52:20;99793.78;;;19.40;90.37
42603;BME280;28233;55.748;48.752;2022-08-11T01:57:36;99787.88;;;19.46;89.17
42603;BME280;28233;55.748;48.752;2022-08-11T01:59:50;99798.63;;;19.47;89.07
42603;BME280;28233;55.748;48.752;2022-08-11T02:04:37;99809.84;;;19.51;88.48
42603;BME280;28233;55.748;48.752;2022-08-11T02:11:31;99809.16;;;19.57;87.99
42603;BME280;28233;55.748;48.752;2022-08-11T02:16:52;99811.25;;;19.64;87.66
42603;BME280;28233;55.748;48.752;2022-08-11T02:21:54;99818.41;;;19.65;87.91
42603;BME280;28233;55.748;48.752;2022-08-11T02:24:25;99816.44;;;19.65;87.81
42603;BME280;28233;55.748;48.752;2022-08-11T02:26:54;99824.78;;;19.65;87.74
42603;BME280;28233;55.748;48.752;2022-08-11T02:29:37;99824.88;;;19.69;87.54
42603;BME280;28233;55.748;48.752;2022-08-11T02:31:52;99834.03;;;19.70;87.46
42603;BME280;28233;55.748;48.752;2022-08-11T02:34:55;99841.94;;;19.68;87.52
42603;BME280;28233;55.748;48.752;2022-08-11T02:37:09;99837.13;;;19.64;87.81
42603;BME280;28233;55.748;48.752;2022-08-11T02:39:34;99843.06;;;19.63;87.76
42603;BME280;28233;55.748;48.752;2022-08-11T02:41:51;99847.78;;;19.59;88.10
42603;BME280;28233;55.748;48.752;2022-08-11T02:49:23;99849.50;;;19.40;89.00
42603;BME280;28233;55.748;48.752;2022-08-11T02:57:36;99867.25;;;19.78;87.89
42603;BME280;28233;55.748;48.752;2022-08-11T03:02:09;99882.75;;;19.76;87.20
42603;BME280;28233;55.748;48.752;2022-08-11T03:04:27;99885.44;;;19.72;87.68
42603;BME280;28233;55.748;48.752;2022-08-11T03:06:51;99881.44;;;19.70;87.49
42603;BME280;28233;55.748;48.752;2022-08-11T03:09:05;99890.59;;;19.70;87.58
42603;BME280;28233;55.748;48.752;2022-08-11T03:11:38;99897.69;;;19.68;87.39
42603;BME280;28233;55.748;48.752;2022-08-11T03:16:59;99900.88;;;19.66;87.58
42603;BME280;28233;55.748;48.752;2022-08-11T03:19:25;99897.03;;;19.74;87.24
42603;BME280;28233;55.748;48.752;2022-08-11T03:22:01;99898.78;;;19.82;86.42
42603;BME280;28233;55.748;48.752;2022-08-11T03:24:14;99904.38;;;19.86;85.73
42603;BME280;28233;55.748;48.752;2022-08-11T03:26:35;99910.84;;;19.90;84.62
42603;BME280;28233;55.748;48.752;2022-08-11T03:28:52;99913.66;;;19.94;84.62
42603;BME280;28233;55.748;48.752;2022-08-11T03:41:41;99924.91;;;20.01;80.79
42603;BME280;28233;55.748;48.752;2022-08-11T03:46:44;99925.34;;;20.03;78.76
42603;BME280;28233;55.748;48.752;2022-08-11T03:49:29;99926.88;;;19.97;77.26
42603;BME280;28233;55.748;48.752;2022-08-11T03:52:36;99930.91;;;19.99;76.81
42603;BME280;28233;55.748;48.752;2022-08-11T03:59:06;99934.75;;;19.91;75.56
42603;BME280;28233;55.748;48.752;2022-08-11T04:11:57;99941.50;;;19.67;73.20
42603;BME280;28233;55.748;48.752;2022-08-11T04:20:03;99952.84;;;19.55;70.53
42603;BME280;28233;55.748;48.752;2022-08-11T04:22:44;99958.03;;;19.56;70.50
42603;BME280;28233;55.748;48.752;2022-08-11T04:25:07;99964.47;;;19.60;70.43
42603;BME280;28233;55.748;48.752;2022-08-11T04:30:05;99971.06;;;19.72;68.33
42603;BME280;28233;55.748;48.752;2022-08-11T04:34:41;99973.50;;;19.73;66.23
42603;BME280;28233;55.748;48.752;2022-08-11T04:50:12;99982.88;;;20.11;64.18
42603;BME280;28233;55.748;48.752;2022-08-11T05:00:11;99999.13;;;20.32;61.97
42603;BME280;28233;55.748;48.752;2022-08-11T05:08:39;100011.22;;;20.43;61.13
42603;BME280;28233;55.748;48.752;2022-08-11T05:13:06;100015.38;;;20.53;60.71
42603;BME280;28233;55.748;48.752;2022-08-11T05:15:53;100021.47;;;20.59;59.62
42603;BME280;28233;55.748;48.752;2022-08-11T05:18:21;100015.88;;;20.59;60.34
42603;BME280;28233;55.748;48.752;2022-08-11T05:20:49;100015.56;;;20.64;59.77
42603;BME280;28233;55.748;48.752;2022-08-11T05:23:14;100008.38;;;20.63;58.89
42603;BME280;28233;55.748;48.752;2022-08-11T05:25:36;100018.84;;;20.69;60.24
42603;BME280;28233;55.748;48.752;2022-08-11T05:28:39;100001.78;;;20.78;59.29
42603;BME280;28233;55.748;48.752;2022-08-11T05:31:58;99998.63;;;20.80;59.17
42603;BME280;28233;55.748;48.752;2022-08-11T05:34:28;99996.69;;;20.84;59.30
42603;BME280;28233;55.748;48.752;2022-08-11T05:37:06;100009.06;;;20.86;59.08
42603;BME280;28233;55.748;48.752;2022-08-11T05:41:56;100007.59;;;20.96;56.79
42603;BME280;28233;55.748;48.752;2022-08-11T05:44:33;100007.22;;;20.98;55.37
42603;BME280;28233;55.748;48.752;2022-08-11T05:46:57;100015.19;;;20.96;55.10
42603;BME280;28233;55.748;48.752;2022-08-11T05:49:18;100009.53;;;20.92;54.95
42603;BME280;28233;55.748;48.752;2022-08-11T05:51:42;100011.56;;;20.95;54.04
42603;BME280;28233;55.748;48.752;2022-08-11T05:54:15;100010.03;;;20.98;52.62
42603;BME280;28233;55.748;48.752;2022-08-11T05:56:44;100012.06;;;21.04;51.87
42603;BME280;28233;55.748;48.752;2022-08-11T05:58:52;100014.94;;;21.11;52.27
42603;BME280;28233;55.748;48.752;2022-08-11T06:00:56;100022.59;;;21.15;52.29
42603;BME280;28233;55.748;48.752;2022-08-11T06:03:01;100024.63;;;21.18;52.10
42603;BME280;28233;55.748;48.752;2022-08-11T06:05:09;100025.41;;;21.18;51.04
42603;BME280;28233;55.748;48.752;2022-08-11T06:07:13;100026.19;;;21.19;50.92
42603;BME280;28233;55.748;48.752;2022-08-11T06:09:27;100023.03;;;21.20;51.64
42603;BME280;28233;55.748;48.752;2022-08-11T06:11:37;100021.03;;;21.21;51.88
42603;BME280;28233;55.748;48.752;2022-08-11T06:13:46;100025.91;;;21.27;51.36
42603;BME280;28233;55.748;48.752;2022-08-11T06:15:50;100026.00;;;21.35;50.87
42603;BME280;28233;55.748;48.752;2022-08-11T06:17:54;100020.09;;;21.40;51.52
42603;BME280;28233;55.748;48.752;2022-08-11T06:20:02;100027.75;;;21.46;50.79
42603;BME280;28233;55.748;48.752;2022-08-11T06:22:10;100034.97;;;21.47;51.27
42603;BME280;28233;55.748;48.752;2022-08-11T06:24:14;100032.25;;;21.55;50.84
42603;BME280;28233;55.748;48.752;2022-08-11T06:26:18;100031.84;;;21.56;49.40
42603;BME280;28233;55.748;48.752;2022-08-11T06:28:30;100024.22;;;21.53;49.77
42603;BME280;28233;55.748;48.752;2022-08-11T06:30:45;100024.66;;;21.55;50.40
42603;BME280;28233;55.748;48.752;2022-08-11T06:32:51;100031.84;;;21.56;49.36
42603;BME280;28233;55.748;48.752;2022-08-11T06:37:38;100027.88;;;21.61;50.76
42603;BME280;28233;55.748;48.752;2022-08-11T06:39:50;100025.53;;;21.63;50.75
42603;BME280;28233;55.748;48.752;2022-08-11T06:42:07;100023.56;;;21.67;50.40
42603;BME280;28233;55.748;48.752;2022-08-11T06:46:17;100031.28;;;21.81;50.90
42603;BME280;28233;55.748;48.752;2022-08-11T06:48:31;100024.97;;;21.91;50.88
42603;BME280;28233;55.748;48.752;2022-08-11T06:50:35;100033.47;;;22.02;49.71
42603;BME280;28233;55.748;48.752;2022-08-11T06:52:56;100029.84;;;22.01;49.40
42603;BME280;28233;55.748;48.752;2022-08-11T06:55:05;100029.84;;;22.01;50.09
42603;BME280;28233;55.748;48.752;2022-08-11T06:57:12;100033.91;;;22.07;49.37
42603;BME280;28233;55.748;48.752;2022-08-11T06:59:35;100033.59;;;22.16;49.21
42603;BME280;28233;55.748;48.752;2022-08-11T07:02:00;100038.38;;;22.15;47.52
42603;BME280;28233;55.748;48.752;2022-08-11T07:04:08;100034.38;;;22.16;48.34
42603;BME280;28233;55.748;48.752;2022-08-11T07:06:39;100032.47;;;22.21;47.88
42603;BME280;28233;55.748;48.752;2022-08-11T07:09:10;100035.59;;;22.19;48.88
42603;BME280;28233;55.748;48.752;2022-08-11T07:11:54;100039.97;;;22.16;48.95
42603;BME280;28233;55.748;48.752;2022-08-11T07:14:23;100039.31;;;22.30;49.43
42603;BME280;28233;55.748;48.752;2022-08-11T07:16:47;100035.38;;;22.38;50.09
42603;BME280;28233;55.748;48.752;2022-08-11T07:18:52;100046.22;;;22.47;50.13
42603;BME280;28233;55.748;48.752;2022-08-11T07:21:26;100043.09;;;22.56;49.36
42603;BME280;28233;55.748;48.752;2022-08-11T07:24:10;100041.13;;;22.60;48.95
42603;BME280;28233;55.748;48.752;2022-08-11T07:26:54;100047.53;;;22.64;49.55
42603;BME280;28233;55.748;48.752;2022-08-11T07:29:17;100043.56;;;22.69;48.75
42603;BME280;28233;55.748;48.752;2022-08-11T07:31:33;100040.78;;;22.76;48.65
42603;BME280;28233;55.748;48.752;2022-08-11T07:33:46;100032.34;;;22.65;47.48
42603;BME280;28233;55.748;48.752;2022-08-11T07:36:10;100042.00;;;22.78;49.96
42603;BME280;28233;55.748;48.752;2022-08-11T07:38:23;100035.25;;;22.87;48.23
42603;BME280;28233;55.748;48.752;2022-08-11T07:40:49;100029.28;;;22.92;48.58
42603;BME280;28233;55.748;48.752;2022-08-11T07:42:54;100025.75;;;22.98;48.29
42603;BME280;28233;55.748;48.752;2022-08-11T07:44:58;100037.34;;;23.04;46.58
42603;BME280;28233;55.748;48.752;2022-08-11T07:47:20;100032.50;;;22.94;46.97
42603;BME280;28233;55.748;48.752;2022-08-11T07:49:44;100028.81;;;22.79;46.49
42603;BME280;28233;55.748;48.752;2022-08-11T07:52:06;100022.44;;;22.86;49.41
42603;BME280;28233;55.748;48.752;2022-08-11T07:54:29;100040.56;;;23.06;48.06
42603;BME280;28233;55.748;48.752;2022-08-11T07:56:35;100037.81;;;23.10;48.34
42603;BME280;28233;55.748;48.752;2022-08-11T07:58:56;100037.78;;;23.03;47.57
42603;BME280;28233;55.748;48.752;2022-08-11T08:01:24;100030.53;;;23.02;47.60
42603;BME280;28233;55.748;48.752;2022-08-11T08:03:46;100035.75;;;22.99;48.42
42603;BME280;28233;55.748;48.752;2022-08-11T08:06:08;100024.84;;;22.84;46.02
42603;BME280;28233;55.748;48.752;2022-08-11T08:08:39;100027.66;;;22.84;46.80
42603;BME280;28233;55.748;48.752;2022-08-11T08:11:02;100034.16;;;22.98;48.80
42603;BME280;28233;55.748;48.752;2022-08-11T08:13:31;100034.16;;;23.09;47.41
42603;BME280;28233;55.748;48.752;2022-08-11T08:15:53;100042.19;;;23.11;48.62
42603;BME280;28233;55.748;48.752;2022-08-11T08:18:15;100032.22;;;23.17;48.22
42603;BME280;28233;55.748;48.752;2022-08-11T08:20:48;100033.03;;;23.25;48.56
42603;BME280;28233;55.748;48.752;2022-08-11T08:22:57;100033.47;;;23.34;48.20
42603;BME280;28233;55.748;48.752;2022-08-11T08:25:00;100024.28;;;23.44;48.61
42603;BME280;28233;55.748;48.752;2022-08-11T08:27:04;100022.31;;;23.55;49.43
42603;BME280;28233;55.748;48.752;2022-08-11T08:29:07;100026.72;;;23.67;47.17
42603;BME280;28233;55.748;48.752;2022-08-11T08:31:29;100025.53;;;23.72;46.69
42603;BME280;28233;55.748;48.752;2022-08-11T08:33:32;100021.56;;;23.76;47.11
42603;BME280;28233;55.748;48.752;2022-08-11T08:35:35;100022.78;;;23.82;46.90
42603;BME280;28233;55.748;48.752;2022-08-11T08:37:56;100013.94;;;23.91;46.24
42603;BME280;28233;55.748;48.752;2022-08-11T08:40:01;100015.97;;;23.94;44.89
42603;BME280;28233;55.748;48.752;2022-08-11T08:42:12;100014.78;;;23.99;44.95
42603;BME280;28233;55.748;48.752;2022-08-11T08:44:20;100017.16;;;24.00;45.17
42603;BME280;28233;55.748;48.752;2022-08-11T08:46:46;100023.56;;;24.12;44.85
42603;BME280;28233;55.748;48.752;2022-08-11T08:48:51;100030.00;;;24.16;44.87
42603;BME280;28233;55.748;48.752;2022-08-11T08:51:02;100026.78;;;24.21;45.30
42603;BME280;28233;55.748;48.752;2022-08-11T08:53:29;100023.56;;;24.22;44.37
42603;BME280;28233;55.748;48.752;2022-08-11T08:55:34;100023.56;;;24.30;44.61
42603;BME280;28233;55.748;48.752;2022-08-11T08:57:38;100027.97;;;24.34;45.85
42603;BME280;28233;55.748;48.752;2022-08-11T08:59:44;100029.56;;;24.39;44.28
42603;BME280;28233;55.748;48.752;2022-08-11T09:01:56;100019.13;;;24.36;43.22
42603;BME280;28233;55.748;48.752;2022-08-11T09:03:59;100021.53;;;24.44;44.53
42603;BME280;28233;55.748;48.752;2022-08-11T09:06:10;100018.75;;;24.52;45.39
42603;BME280;28233;55.748;48.752;2022-08-11T09:08:17;100012.28;;;24.62;45.06
42603;BME280;28233;55.748;48.752;2022-08-11T09:10:21;100009.88;;;24.64;43.15
42603;BME280;28233;55.748;48.752;2022-08-11T09:12:29;100009.47;;;24.65;41.49
42603;BME280;28233;55.748;48.752;2022-08-11T09:14:48;100007.06;;;24.67;41.65
42603;BME280;28233;55.748;48.752;2022-08-11T09:17:09;100005.44;;;24.77;43.14
42603;BME280;28233;55.748;48.752;2022-08-11T09:19:14;100015.81;;;24.91;44.17
42603;BME280;28233;55.748;48.752;2022-08-11T09:21:20;100008.53;;;25.01;43.15
42603;BME280;28233;55.748;48.752;2022-08-11T09:23:45;100007.44;;;24.77;40.43
42603;BME280;28233;55.748;48.752;2022-08-11T09:26:13;100012.22;;;24.76;40.44
42603;BME280;28233;55.748;48.752;2022-08-11T09:28:35;100015.50;;;24.64;40.10
42603;BME280;28233;55.748;48.752;2022-08-11T09:30:40;100009.47;;;24.65;41.71
42603;BME280;28233;55.748;48.752;2022-08-11T09:32:45;100014.22;;;24.83;40.46
42603;BME280;28233;55.748;48.752;2022-08-11T09:34:50;100013.41;;;24.93;42.05
42603;BME280;28233;55.748;48.752;2022-08-11T09:36:58;100003.72;;;25.01;41.92
42603;BME280;28233;55.748;48.752;2022-08-11T09:39:43;100014.94;;;25.08;40.98
42603;BME280;28233;55.748;48.752;2022-08-11T09:42:05;100010.97;;;24.95;39.41
42603;BME280;28233;55.748;48.752;2022-08-11T09:44:17;100013.75;;;25.02;40.78
42603;BME280;28233;55.748;48.752;2022-08-11T09:46:39;100009.38;;;24.98;39.71
42603;BME280;28233;55.748;48.752;2022-08-11T09:48:44;100012.94;;;25.05;39.24
42603;BME280;28233;55.748;48.752;2022-08-11T09:50:50;100014.94;;;25.08;38.81
42603;BME280;28233;55.748;48.752;2022-08-11T09:52:53;100012.22;;;24.87;39.90
42603;BME280;28233;55.748;48.752;2022-08-11T09:55:16;100020.69;;;24.69;39.58
42603;BME280;28233;55.748;48.752;2022-08-11T09:57:25;100016.69;;;24.70;40.13
42603;BME280;28233;55.748;48.752;2022-08-11T09:59:46;100015.84;;;24.84;39.85
42603;BME280;28233;55.748;48.752;2022-08-11T10:01:55;100017.09;;;24.72;39.50
42603;BME280;28233;55.748;48.752;2022-08-11T10:04:07;100012.28;;;24.62;39.33
42603;BME280;28233;55.748;48.752;2022-08-11T10:06:11;100016.34;;;24.54;39.53
42603;BME280;28233;55.748;48.752;2022-08-11T10:08:38;100001.41;;;24.71;41.46
42603;BME280;28233;55.748;48.752;2022-08-11T10:10:42;100013.06;;;24.77;39.42
42603;BME280;28233;55.748;48.752;2022-08-11T10:12:58;100011.03;;;24.77;39.06
42603;BME280;28233;55.748;48.752;2022-08-11T10:15:07;100015.00;;;24.94;39.79
42603;BME280;28233;55.748;48.752;2022-08-11T10:17:31;100008.06;;;25.17;38.96
42603;BME280;28233;55.748;48.752;2022-08-11T10:19:35;100012.81;;;25.38;38.80
42603;BME280;28233;55.748;48.752;2022-08-11T10:21:45;100008.03;;;25.27;37.67
42603;BME280;28233;55.748;48.752;2022-08-11T10:24:09;99999.03;;;25.54;38.56
42603;BME280;28233;55.748;48.752;2022-08-11T10:26:32;100012.13;;;25.75;40.22
42603;BME280;28233;55.748;48.752;2022-08-11T10:28:55;100006.47;;;25.82;37.48
42603;BME280;28233;55.748;48.752;2022-08-11T10:31:14;100006.69;;;25.50;37.26
42603;BME280;28233;55.748;48.752;2022-08-11T10:33:56;100004.88;;;25.18;37.38
42603;BME280;28233;55.748;48.752;2022-08-11T10:36:04;100016.50;;;25.13;37.96
42603;BME280;28233;55.748;48.752;2022-08-11T10:38:18;100011.63;;;25.28;37.37
42603;BME280;28233;55.748;48.752;2022-08-11T10:40:22;100003.06;;;25.53;38.18
42603;BME280;28233;55.748;48.752;2022-08-11T10:42:26;100002.88;;;25.78;38.84
42603;BME280;28233;55.748;48.752;2022-08-11T10:45:00;99998.22;;;26.09;39.37
42603;BME280;28233;55.748;48.752;2022-08-11T10:47:06;99999.63;;;26.32;38.39
42603;BME280;28233;55.748;48.752;2022-08-11T10:49:29;99993.41;;;26.48;36.16
42603;BME280;28233;55.748;48.752;2022-08-11T10:51:32;99992.47;;;26.65;35.98
42603;BME280;28233;55.748;48.752;2022-08-11T10:53:58;99989.75;;;26.89;35.43
42603;BME280;28233;55.748;48.752;2022-08-11T10:56:20;99991.13;;;27.08;37.34
42603;BME280;28233;55.748;48.752;2022-08-11T10:58:42;99991.66;;;27.30;38.03
42603;BME280;28233;55.748;48.752;2022-08-11T11:00:52;99991.88;;;27.43;36.31
42603;BME280;28233;55.748;48.752;2022-08-11T11:02:58;99981.00;;;27.10;34.08
42603;BME280;28233;55.748;48.752;2022-08-11T11:05:27;99984.38;;;26.67;34.90
42603;BME280;28233;55.748;48.752;2022-08-11T11:07:37;99985.56;;;26.70;34.93
42603;BME280;28233;55.748;48.752;2022-08-11T11:09:51;99985.00;;;26.82;34.68
42603;BME280;28233;55.748;48.752;2022-08-11T11:11:59;99985.75;;;26.86;33.95
42603;BME280;28233;55.748;48.752;2022-08-11T11:14:26;99981.28;;;26.54;33.82
42603;BME280;28233;55.748;48.752;2022-08-11T11:16:55;99980.31;;;26.72;34.57
42603;BME280;28233;55.748;48.752;2022-08-11T11:19:21;99985.13;;;27.02;34.76
42603;BME280;28233;55.748;48.752;2022-08-11T11:21:25;99978.44;;;27.23;34.34
42603;BME280;28233;55.748;48.752;2022-08-11T11:28:54;99984.72;;;28.12;34.10
42603;BME280;28233;55.748;48.752;2022-08-11T11:33:36;99986.44;;;28.30;32.95
42603;BME280;28233;55.748;48.752;2022-08-11T11:38:19;99982.00;;;28.72;33.92
42603;BME280;28233;55.748;48.752;2022-08-11T11:40:23;99979.69;;;29.07;34.52
42603;BME280;28233;55.748;48.752;2022-08-11T11:42:33;99979.44;;;29.18;31.56
42603;BME280;28233;55.748;48.752;2022-08-11T11:44:42;99973.56;;;29.28;30.82
42603;BME280;28233;55.748;48.752;2022-08-11T11:46:46;99986.22;;;29.40;30.78
42603;BME280;28233;55.748;48.752;2022-08-11T11:48:49;99981.56;;;29.66;30.36
42603;BME280;28233;55.748;48.752;2022-08-11T11:50:54;99978.56;;;30.06;31.35
42603;BME280;28233;55.748;48.752;2022-08-11T11:53:03;99972.72;;;30.30;30.50
42603;BME280;28233;55.748;48.752;2022-08-11T11:55:06;99975.69;;;29.41;29.77
42603;BME280;28233;55.748;48.752;2022-08-11T11:57:10;99981.84;;;28.99;30.17
42603;BME280;28233;55.748;48.752;2022-08-11T11:59:34;99982.94;;;28.85;30.58
42603;BME280;28233;55.748;48.752;2022-08-11T12:01:56;99974.59;;;28.98;30.47
42603;BME280;28233;55.748;48.752;2022-08-11T12:03:59;99977.41;;;29.18;30.39
42603;BME280;28233;55.748;48.752;2022-08-11T12:06:03;99976.88;;;29.60;29.97
42603;BME280;28233;55.748;48.752;2022-08-11T12:08:06;99976.19;;;29.88;29.37
42603;BME280;28233;55.748;48.752;2022-08-11T12:10:19;99986.78;;;30.01;29.00
42603;BME280;28233;55.748;48.752;2022-08-11T12:12:22;99977.47;;;29.51;28.90
42603;BME280;28233;55.748;48.752;2022-08-11T12:14:43;99988.09;;;29.47;29.48
42603;BME280;28233;55.748;48.752;2022-08-11T12:16:47;99982.06;;;29.45;29.44
42603;BME280;28233;55.748;48.752;2022-08-11T12:18:57;99981.50;;;29.70;29.01
42603;BME280;28233;55.748;48.752;2022-08-11T12:21:02;99980.56;;;29.40;29.41
42603;BME280;28233;55.748;48.752;2022-08-11T12:23:06;99976.75;;;29.31;28.86
42603;BME280;28233;55.748;48.752;2022-08-11T12:25:27;99978.34;;;29.32;28.79
42603;BME280;28233;55.748;48.752;2022-08-11T12:28:01;99970.16;;;29.86;28.11
42603;BME280;28233;55.748;48.752;2022-08-11T12:30:04;99976.50;;;30.40;28.69
42603;BME280;28233;55.748;48.752;2022-08-11T12:32:07;99964.22;;;30.88;27.45
42603;BME280;28233;55.748;48.752;2022-08-11T12:34:14;99962.06;;;31.18;28.35
42603;BME280;28233;55.748;48.752;2022-08-11T12:36:19;99960.41;;;31.59;27.85
42603;BME280;28233;55.748;48.752;2022-08-11T12:38:22;99963.34;;;31.81;27.82
42603;BME280;28233;55.748;48.752;2022-08-11T12:40:31;99965.34;;;31.93;28.47
42603;BME280;28233;55.748;48.752;2022-08-11T12:43:16;99960.16;;;32.27;26.97
42603;BME280;28233;55.748;48.752;2022-08-11T12:45:40;99964.31;;;32.92;25.44
42603;BME280;28233;55.748;48.752;2022-08-11T12:47:49;99963.78;;;33.46;24.48
42603;BME280;28233;55.748;48.752;2022-08-11T12:50:32;99964.53;;;33.69;24.60
42603;BME280;28233;55.748;48.752;2022-08-11T12:52:54;99962.44;;;33.20;23.91
42603;BME280;28233;55.748;48.752;2022-08-11T12:55:14;99966.91;;;32.20;24.74
42603;BME280;28233;55.748;48.752;2022-08-11T12:57:46;99964.94;;;31.82;24.97
42603;BME280;28233;55.748;48.752;2022-08-11T13:00:09;99954.34;;;32.30;26.44
42603;BME280;28233;55.748;48.752;2022-08-11T13:02:31;99951.19;;;32.94;26.20
42603;BME280;28233;55.748;48.752;2022-08-11T13:04:54;99950.03;;;33.45;25.23
42603;BME280;28233;55.748;48.752;2022-08-11T13:07:01;99952.31;;;33.59;24.41
42603;BME280;28233;55.748;48.752;2022-08-11T13:09:05;99944.53;;;34.09;24.71
42603;BME280;28233;55.748;48.752;2022-08-11T13:11:10;99946.09;;;34.47;23.13
42603;BME280;28233;55.748;48.752;2022-08-11T13:13:52;99952.28;;;34.18;22.63
42603;BME280;28233;55.748;48.752;2022-08-11T13:15:59;99943.63;;;33.63;23.55
42603;BME280;28233;55.748;48.752;2022-08-11T13:18:03;99957.13;;;33.40;23.98
42603;BME280;28233;55.748;48.752;2022-08-11T13:20:11;99947.06;;;33.17;23.84
42603;BME280;28233;55.748;48.752;2022-08-11T13:22:16;99944.13;;;32.77;24.14
42603;BME280;28233;55.748;48.752;2022-08-11T13:24:20;99942.97;;;32.30;24.60
42603;BME280;28233;55.748;48.752;2022-08-11T13:26:24;99941.06;;;32.49;24.83
42603;BME280;28233;55.748;48.752;2022-08-11T13:28:46;99942.53;;;32.76;25.62
42603;BME280;28233;55.748;48.752;2022-08-11T13:30:50;99938.94;;;33.38;24.69
42603;BME280;28233;55.748;48.752;2022-08-11T13:33:13;99938.84;;;33.19;23.63
42603;BME280;28233;55.748;48.752;2022-08-11T13:35:18;99939.06;;;33.03;23.99
42603;BME280;28233;55.748;48.752;2022-08-11T13:37:21;99939.16;;;33.12;24.14
42603;BME280;28233;55.748;48.752;2022-08-11T13:39:44;99937.13;;;33.62;24.53
42603;BME280;28233;55.748;48.752;2022-08-11T13:41:48;99933.91;;;34.10;23.91
42603;BME280;28233;55.748;48.752;2022-08-11T13:43:52;99934.69;;;34.47;24.34
42603;BME280;28233;55.748;48.752;2022-08-11T13:45:56;99938.81;;;34.74;23.46
42603;BME280;28233;55.748;48.752;2022-08-11T13:48:19;99938.31;;;34.76;22.58
42603;BME280;28233;55.748;48.752;2022-08-11T13:50:23;99928.97;;;34.75;22.22
42603;BME280;28233;55.748;48.752;2022-08-11T13:52:50;99929.50;;;34.64;22.67
42603;BME280;28233;55.748;48.752;2022-08-11T13:54:55;99933.28;;;34.15;23.27
42603;BME280;28233;55.748;48.752;2022-08-11T13:57:04;99934.78;;;33.79;24.03
42603;BME280;28233;55.748;48.752;2022-08-11T13:59:12;99923.78;;;33.10;24.13
42603;BME280;28233;55.748;48.752;2022-08-11T14:01:16;99932.53;;;32.49;24.81
42603;BME280;28233;55.748;48.752;2022-08-11T14:03:41;99927.25;;;31.43;26.23
42603;BME280;28233;55.748;48.752;2022-08-11T14:06:05;99930.28;;;30.98;26.37
42603;BME280;28233;55.748;48.752;2022-08-11T14:08:12;99926.88;;;31.15;26.24
42603;BME280;28233;55.748;48.752;2022-08-11T14:10:37;99926.06;;;31.79;27.11
42603;BME280;28233;55.748;48.752;2022-08-11T14:12:42;99923.78;;;32.21;26.87
42603;BME280;28233;55.748;48.752;2022-08-11T14:17:29;99926.75;;;32.75;25.52
42603;BME280;28233;55.748;48.752;2022-08-11T14:19:51;99916.03;;;33.10;25.46
42603;BME280;28233;55.748;48.752;2022-08-11T14:21:56;99906.66;;;33.41;24.97
42603;BME280;28233;55.748;48.752;2022-08-11T14:24:10;99906.66;;;33.41;25.03
42603;BME280;28233;55.748;48.752;2022-08-11T14:26:16;99916.25;;;33.75;24.49
42603;BME280;28233;55.748;48.752;2022-08-11T14:28:25;99905.53;;;33.97;23.98
42603;BME280;28233;55.748;48.752;2022-08-11T14:30:36;99906.66;;;34.09;23.83
42603;BME280;28233;55.748;48.752;2022-08-11T14:33:02;99903.97;;;34.33;22.86
42603;BME280;28233;55.748;48.752;2022-08-11T14:35:18;99896.34;;;34.39;22.95
42603;BME280;28233;55.748;48.752;2022-08-11T14:37:22;99904.59;;;34.19;23.37
42603;BME280;28233;55.748;48.752;2022-08-11T14:39:29;99902.34;;;33.77;23.96
42603;BME280;28233;55.748;48.752;2022-08-11T14:41:40;99901.75;;;33.41;24.68
42603;BME280;28233;55.748;48.752;2022-08-11T14:44:14;99904.69;;;33.60;25.39
42603;BME280;28233;55.748;48.752;2022-08-11T14:46:38;99890.97;;;34.23;23.93
42603;BME280;28233;55.748;48.752;2022-08-11T14:49:00;99894.13;;;33.97;24.50